sensor_id;sensor_type;location;lat;lon;timestamp;temperature;humidity
19864;DHT22;10094;48.820;9.226;2023-06-10T00:06:09;17.80;99.90
19864;DHT22;10094;48.820;9.226;2023-06-10T00:12:52;17.90;99.90
19864;DHT22;10094;48.820;9.226;2023-06-10T00:19:34;17.60;99.90
19864;DHT22;10094;48.820;9.226;2023-06-10T00:26:17;17.30;99.90
19864;DHT22;10094;48.820;9.226;2023-06-10T00:33:00;17.40;99.90
19864;DHT22;10094;48.820;9.226;2023-06-10T00:39:44;17.30;99.90
19864;DHT22;10094;48.820;9.226;2023-06-10T00:46:26;17.00;99.90
19864;DHT22;10094;48.820;9.226;2023-06-10T00:53:11;16.90;99.90
19864;DHT22;10094;48.820;9.226;2023-06-10T00:59:54;16.90;99.90
19864;DHT22;10094;48.820;9.226;2023-06-10T01:06:46;16.90;99.90
19864;DHT22;10094;48.820;9.226;2023-06-10T01:13:36;16.80;99.90
19864;DHT22;10094;48.820;9.226;2023-06-10T01:20:20;16.80;99.90
19864;DHT22;10094;48.820;9.226;2023-06-10T01:27:07;16.80;99.90
19864;DHT22;10094;48.820;9.226;2023-06-10T01:33:53;16.70;99.90
19864;DHT22;10094;48.820;9.226;2023-06-10T01:40:36;16.50;99.90
19864;DHT22;10094;48.820;9.226;2023-06-10T01:47:19;16.40;99.90
19864;DHT22;10094;48.820;9.226;2023-06-10T01:54:02;16.40;99.90
19864;DHT22;10094;48.820;9.226;2023-06-10T02:00:44;16.20;99.90
19864;DHT22;10094;48.820;9.226;2023-06-10T02:07:26;16.10;99.90
19864;DHT22;10094;48.820;9.226;2023-06-10T02:14:10;16.00;99.90
19864;DHT22;10094;48.820;9.226;2023-06-10T02:20:52;15.90;99.90
19864;DHT22;10094;48.820;9.226;2023-06-10T02:27:35;15.80;99.90
19864;DHT22;10094;48.820;9.226;2023-06-10T02:34:17;15.80;99.90
19864;DHT22;10094;48.820;9.226;2023-06-10T02:41:00;15.90;99.90
19864;DHT22;10094;48.820;9.226;2023-06-10T02:47:43;15.80;99.90
19864;DHT22;10094;48.820;9.226;2023-06-10T02:54:27;15.80;99.90
19864;DHT22;10094;48.820;9.226;2023-06-10T03:01:11;15.70;99.90
19864;DHT22;10094;48.820;9.226;2023-06-10T03:08:03;15.70;99.90
19864;DHT22;10094;48.820;9.226;2023-06-10T03:14:47;15.70;99.90
19864;DHT22;10094;48.820;9.226;2023-06-10T03:21:31;15.70;99.90
19864;DHT22;10094;48.820;9.226;2023-06-10T03:28:14;15.50;99.90
19864;DHT22;10094;48.820;9.226;2023-06-10T03:34:58;15.40;99.90
19864;DHT22;10094;48.820;9.226;2023-06-10T03:41:43;15.50;99.90
19864;DHT22;10094;48.820;9.226;2023-06-10T03:48:26;15.50;99.90
19864;DHT22;10094;48.820;9.226;2023-06-10T03:55:10;15.60;99.90
19864;DHT22;10094;48.820;9.226;2023-06-10T04:01:57;15.60;99.90
19864;DHT22;10094;48.820;9.226;2023-06-10T04:08:39;15.70;99.90
19864;DHT22;10094;48.820;9.226;2023-06-10T04:15:22;15.70;99.90
19864;DHT22;10094;48.820;9.226;2023-06-10T04:22:05;15.90;99.90
19864;DHT22;10094;48.820;9.226;2023-06-10T04:28:48;15.80;99.90
19864;DHT22;10094;48.820;9.226;2023-06-10T04:35:31;15.80;99.90
19864;DHT22;10094;48.820;9.226;2023-06-10T04:42:15;16.20;99.90
19864;DHT22;10094;48.820;9.226;2023-06-10T04:48:58;16.50;99.90
19864;DHT22;10094;48.820;9.226;2023-06-10T04:55:41;16.80;99.90
19864;DHT22;10094;48.820;9.226;2023-06-10T05:02:23;18.70;99.90
19864;DHT22;10094;48.820;9.226;2023-06-10T05:09:06;22.80;99.90
19864;DHT22;10094;48.820;9.226;2023-06-10T05:15:48;25.20;99.90
19864;DHT22;10094;48.820;9.226;2023-06-10T05:22:31;26.10;96.80
19864;DHT22;10094;48.820;9.226;2023-06-10T05:29:13;27.70;92.80
19864;DHT22;10094;48.820;9.226;2023-06-10T05:35:57;28.60;90.50
19864;DHT22;10094;48.820;9.226;2023-06-10T05:42:39;30.20;87.30
19864;DHT22;10094;48.820;9.226;2023-06-10T05:49:22;31.70;82.10
19864;DHT22;10094;48.820;9.226;2023-06-10T05:56:05;32.30;80.60
19864;DHT22;10094;48.820;9.226;2023-06-10T06:02:47;34.00;77.90
19864;DHT22;10094;48.820;9.226;2023-06-10T06:09:30;34.70;75.00
19864;DHT22;10094;48.820;9.226;2023-06-10T06:16:12;33.00;74.80
19864;DHT22;10094;48.820;9.226;2023-06-10T06:22:55;34.10;73.70
19864;DHT22;10094;48.820;9.226;2023-06-10T06:29:37;33.50;73.30
19864;DHT22;10094;48.820;9.226;2023-06-10T06:36:20;32.80;73.10
19864;DHT22;10094;48.820;9.226;2023-06-10T06:43:02;32.80;72.80
19864;DHT22;10094;48.820;9.226;2023-06-10T06:49:57;34.20;72.90
19864;DHT22;10094;48.820;9.226;2023-06-10T06:56:39;34.30;71.10
19864;DHT22;10094;48.820;9.226;2023-06-10T07:03:22;33.90;71.50
19864;DHT22;10094;48.820;9.226;2023-06-10T07:10:04;34.50;70.70
19864;DHT22;10094;48.820;9.226;2023-06-10T07:16:47;34.90;69.50
19864;DHT22;10094;48.820;9.226;2023-06-10T07:23:31;35.10;69.60
19864;DHT22;10094;48.820;9.226;2023-06-10T07:30:13;34.00;70.10
19864;DHT22;10094;48.820;9.226;2023-06-10T07:36:55;35.70;69.70
19864;DHT22;10094;48.820;9.226;2023-06-10T07:43:38;36.80;68.00
19864;DHT22;10094;48.820;9.226;2023-06-10T07:50:20;38.00;66.20
19864;DHT22;10094;48.820;9.226;2023-06-10T07:57:03;39.00;65.20
19864;DHT22;10094;48.820;9.226;2023-06-10T08:03:45;38.40;64.80
19864;DHT22;10094;48.820;9.226;2023-06-10T08:10:28;35.70;65.80
19864;DHT22;10094;48.820;9.226;2023-06-10T08:17:10;34.70;67.00
19864;DHT22;10094;48.820;9.226;2023-06-10T08:23:53;36.30;66.50
19864;DHT22;10094;48.820;9.226;2023-06-10T08:30:36;37.20;65.10
19864;DHT22;10094;48.820;9.226;2023-06-10T08:37:18;34.50;67.00
19864;DHT22;10094;48.820;9.226;2023-06-10T08:44:16;36.10;65.90
19864;DHT22;10094;48.820;9.226;2023-06-10T08:51:03;38.30;65.30
19864;DHT22;10094;48.820;9.226;2023-06-10T08:57:46;37.00;64.50
19864;DHT22;10094;48.820;9.226;2023-06-10T09:04:30;37.00;63.80
19864;DHT22;10094;48.820;9.226;2023-06-10T09:11:13;37.80;62.00
19864;DHT22;10094;48.820;9.226;2023-06-10T09:17:55;37.20;63.20
19864;DHT22;10094;48.820;9.226;2023-06-10T09:24:38;34.20;63.70
19864;DHT22;10094;48.820;9.226;2023-06-10T09:31:21;36.10;63.80
19864;DHT22;10094;48.820;9.226;2023-06-10T09:38:04;35.20;63.50
19864;DHT22;10094;48.820;9.226;2023-06-10T09:44:52;35.20;64.20
19864;DHT22;10094;48.820;9.226;2023-06-10T09:51:34;33.40;65.30
19864;DHT22;10094;48.820;9.226;2023-06-10T09:58:17;31.80;66.60
19864;DHT22;10094;48.820;9.226;2023-06-10T10:05:03;30.50;68.90
19864;DHT22;10094;48.820;9.226;2023-06-10T10:11:47;31.70;66.70
19864;DHT22;10094;48.820;9.226;2023-06-10T10:18:31;32.20;66.90
19864;DHT22;10094;48.820;9.226;2023-06-10T10:25:23;34.70;65.20
19864;DHT22;10094;48.820;9.226;2023-06-10T10:32:07;32.40;66.00
19864;DHT22;10094;48.820;9.226;2023-06-10T10:38:51;29.50;69.60
19864;DHT22;10094;48.820;9.226;2023-06-10T10:45:34;31.10;68.70
19864;DHT22;10094;48.820;9.226;2023-06-10T10:52:17;32.90;66.70
19864;DHT22;10094;48.820;9.226;2023-06-10T10:59:06;31.30;67.80
19864;DHT22;10094;48.820;9.226;2023-06-10T11:05:49;31.60;67.90
19864;DHT22;10094;48.820;9.226;2023-06-10T11:19:37;31.10;68.10
19864;DHT22;10094;48.820;9.226;2023-06-10T11:26:30;31.00;67.50
19864;DHT22;10094;48.820;9.226;2023-06-10T11:33:17;30.80;68.20
19864;DHT22;10094;48.820;9.226;2023-06-10T11:39:59;31.10;68.00
19864;DHT22;10094;48.820;9.226;2023-06-10T11:46:42;30.70;68.10
19864;DHT22;10094;48.820;9.226;2023-06-10T11:53:25;30.20;67.90
19864;DHT22;10094;48.820;9.226;2023-06-10T12:00:07;29.90;68.50
19864;DHT22;10094;48.820;9.226;2023-06-10T12:06:53;30.20;68.50
19864;DHT22;10094;48.820;9.226;2023-06-10T12:13:36;29.90;68.00
19864;DHT22;10094;48.820;9.226;2023-06-10T12:20:28;30.10;67.70
19864;DHT22;10094;48.820;9.226;2023-06-10T12:27:13;30.30;67.60
19864;DHT22;10094;48.820;9.226;2023-06-10T12:34:09;30.40;67.00
19864;DHT22;10094;48.820;9.226;2023-06-10T12:40:51;30.20;67.90
19864;DHT22;10094;48.820;9.226;2023-06-10T12:47:35;30.00;67.00
19864;DHT22;10094;48.820;9.226;2023-06-10T12:54:18;30.20;68.10
19864;DHT22;10094;48.820;9.226;2023-06-10T13:01:00;29.60;68.10
19864;DHT22;10094;48.820;9.226;2023-06-10T13:07:44;29.90;68.20
19864;DHT22;10094;48.820;9.226;2023-06-10T13:14:26;29.10;68.30
19864;DHT22;10094;48.820;9.226;2023-06-10T13:21:08;29.60;67.50
19864;DHT22;10094;48.820;9.226;2023-06-10T13:27:51;30.80;66.90
19864;DHT22;10094;48.820;9.226;2023-06-10T13:34:33;30.30;66.90
19864;DHT22;10094;48.820;9.226;2023-06-10T13:41:16;29.40;67.10
19864;DHT22;10094;48.820;9.226;2023-06-10T13:47:58;28.60;68.40
19864;DHT22;10094;48.820;9.226;2023-06-10T13:54:41;28.90;68.50
19864;DHT22;10094;48.820;9.226;2023-06-10T14:01:23;29.60;67.40
19864;DHT22;10094;48.820;9.226;2023-06-10T14:08:06;29.80;66.90
19864;DHT22;10094;48.820;9.226;2023-06-10T14:14:48;29.90;66.60
19864;DHT22;10094;48.820;9.226;2023-06-10T14:21:31;29.70;66.80
19864;DHT22;10094;48.820;9.226;2023-06-10T14:28:13;29.80;67.20
19864;DHT22;10094;48.820;9.226;2023-06-10T14:34:55;30.30;67.60
19864;DHT22;10094;48.820;9.226;2023-06-10T14:41:38;29.30;68.30
19864;DHT22;10094;48.820;9.226;2023-06-10T14:48:20;29.40;68.50
19864;DHT22;10094;48.820;9.226;2023-06-10T14:55:02;29.20;68.70
19864;DHT22;10094;48.820;9.226;2023-06-10T15:01:45;29.50;68.10
19864;DHT22;10094;48.820;9.226;2023-06-10T15:08:27;29.90;68.60
19864;DHT22;10094;48.820;9.226;2023-06-10T15:15:13;29.20;68.50
19864;DHT22;10094;48.820;9.226;2023-06-10T15:21:55;28.80;68.00
19864;DHT22;10094;48.820;9.226;2023-06-10T15:28:38;29.10;68.50
19864;DHT22;10094;48.820;9.226;2023-06-10T15:35:20;29.50;67.50
19864;DHT22;10094;48.820;9.226;2023-06-10T15:42:03;29.30;67.70
19864;DHT22;10094;48.820;9.226;2023-06-10T15:48:45;29.30;68.70
19864;DHT22;10094;48.820;9.226;2023-06-10T15:55:28;29.10;68.30
19864;DHT22;10094;48.820;9.226;2023-06-10T16:02:11;28.90;67.60
19864;DHT22;10094;48.820;9.226;2023-06-10T16:08:54;28.90;67.50
19864;DHT22;10094;48.820;9.226;2023-06-10T16:15:37;29.00;69.20
19864;DHT22;10094;48.820;9.226;2023-06-10T16:22:19;29.10;69.10
19864;DHT22;10094;48.820;9.226;2023-06-10T16:29:02;29.10;69.10
19864;DHT22;10094;48.820;9.226;2023-06-10T16:35:45;28.80;68.00
19864;DHT22;10094;48.820;9.226;2023-06-10T16:42:28;29.10;68.30
19864;DHT22;10094;48.820;9.226;2023-06-10T16:49:10;29.00;68.90
19864;DHT22;10094;48.820;9.226;2023-06-10T16:55:52;28.80;68.80
19864;DHT22;10094;48.820;9.226;2023-06-10T17:02:35;28.70;68.10
19864;DHT22;10094;48.820;9.226;2023-06-10T17:09:18;28.70;69.00
19864;DHT22;10094;48.820;9.226;2023-06-10T17:16:00;29.00;68.70
19864;DHT22;10094;48.820;9.226;2023-06-10T17:22:42;28.90;69.40
19864;DHT22;10094;48.820;9.226;2023-06-10T17:29:25;28.90;69.30
19864;DHT22;10094;48.820;9.226;2023-06-10T17:36:07;29.10;69.50
19864;DHT22;10094;48.820;9.226;2023-06-10T17:42:51;29.00;69.70
19864;DHT22;10094;48.820;9.226;2023-06-10T17:49:33;28.70;70.40
19864;DHT22;10094;48.820;9.226;2023-06-10T17:56:16;28.10;71.30
19864;DHT22;10094;48.820;9.226;2023-06-10T18:02:58;27.80;72.50
19864;DHT22;10094;48.820;9.226;2023-06-10T18:09:41;27.50;73.30
19864;DHT22;10094;48.820;9.226;2023-06-10T18:16:23;27.40;74.00
19864;DHT22;10094;48.820;9.226;2023-06-10T18:23:06;27.30;73.90
19864;DHT22;10094;48.820;9.226;2023-06-10T18:29:48;27.20;73.80
19864;DHT22;10094;48.820;9.226;2023-06-10T18:36:31;27.30;73.70
19864;DHT22;10094;48.820;9.226;2023-06-10T18:43:13;27.10;73.90
19864;DHT22;10094;48.820;9.226;2023-06-10T18:49:55;26.90;74.10
19864;DHT22;10094;48.820;9.226;2023-06-10T18:56:38;26.80;74.70
19864;DHT22;10094;48.820;9.226;2023-06-10T19:03:22;26.60;75.30
19864;DHT22;10094;48.820;9.226;2023-06-10T19:10:05;26.40;75.70
19864;DHT22;10094;48.820;9.226;2023-06-10T19:16:48;26.30;76.20
19864;DHT22;10094;48.820;9.226;2023-06-10T19:23:30;26.10;76.90
19864;DHT22;10094;48.820;9.226;2023-06-10T19:30:13;25.90;77.80
19864;DHT22;10094;48.820;9.226;2023-06-10T19:36:55;25.70;79.00
19864;DHT22;10094;48.820;9.226;2023-06-10T19:43:38;25.50;79.80
19864;DHT22;10094;48.820;9.226;2023-06-10T19:50:20;25.30;81.00
19864;DHT22;10094;48.820;9.226;2023-06-10T19:57:03;25.20;81.80
19864;DHT22;10094;48.820;9.226;2023-06-10T20:03:46;25.10;83.00
19864;DHT22;10094;48.820;9.226;2023-06-10T20:10:28;24.80;85.10
19864;DHT22;10094;48.820;9.226;2023-06-10T20:17:11;24.70;86.50
19864;DHT22;10094;48.820;9.226;2023-06-10T20:23:54;24.60;88.00
19864;DHT22;10094;48.820;9.226;2023-06-10T20:30:36;24.50;89.20
19864;DHT22;10094;48.820;9.226;2023-06-10T20:37:20;24.40;92.50
19864;DHT22;10094;48.820;9.226;2023-06-10T20:44:02;24.10;93.10
19864;DHT22;10094;48.820;9.226;2023-06-10T20:50:44;24.00;92.80
19864;DHT22;10094;48.820;9.226;2023-06-10T20:57:27;23.90;95.10
19864;DHT22;10094;48.820;9.226;2023-06-10T21:04:09;23.80;95.40
19864;DHT22;10094;48.820;9.226;2023-06-10T21:10:52;23.70;96.20
19864;DHT22;10094;48.820;9.226;2023-06-10T21:17:36;23.50;98.40
19864;DHT22;10094;48.820;9.226;2023-06-10T21:24:18;23.40;99.60
19864;DHT22;10094;48.820;9.226;2023-06-10T21:31:01;23.20;99.40
19864;DHT22;10094;48.820;9.226;2023-06-10T21:37:45;23.10;99.90
19864;DHT22;10094;48.820;9.226;2023-06-10T21:44:28;22.80;99.90
19864;DHT22;10094;48.820;9.226;2023-06-10T21:51:11;22.70;99.90
19864;DHT22;10094;48.820;9.226;2023-06-10T21:57:53;22.50;99.90
19864;DHT22;10094;48.820;9.226;2023-06-10T22:04:36;22.40;99.90
19864;DHT22;10094;48.820;9.226;2023-06-10T22:11:18;22.20;99.90
19864;DHT22;10094;48.820;9.226;2023-06-10T22:18:01;22.00;99.90
19864;DHT22;10094;48.820;9.226;2023-06-10T22:24:43;21.70;99.90
19864;DHT22;10094;48.820;9.226;2023-06-10T22:31:28;21.80;99.90
19864;DHT22;10094;48.820;9.226;2023-06-10T22:38:11;21.60;99.90
19864;DHT22;10094;48.820;9.226;2023-06-10T22:44:54;21.40;99.90
19864;DHT22;10094;48.820;9.226;2023-06-10T22:51:36;21.30;99.90
19864;DHT22;10094;48.820;9.226;2023-06-10T22:58:19;21.20;99.90
19864;DHT22;10094;48.820;9.226;2023-06-10T23:05:02;21.10;99.90
19864;DHT22;10094;48.820;9.226;2023-06-10T23:11:45;21.00;99.90
19864;DHT22;10094;48.820;9.226;2023-06-10T23:18:28;21.00;99.90
19864;DHT22;10094;48.820;9.226;2023-06-10T23:25:10;20.90;99.90
19864;DHT22;10094;48.820;9.226;2023-06-10T23:31:53;20.90;99.90
19864;DHT22;10094;48.820;9.226;2023-06-10T23:38:36;20.80;99.90
19864;DHT22;10094;48.820;9.226;2023-06-10T23:45:19;20.70;99.90
19864;DHT22;10094;48.820;9.226;2023-06-10T23:52:01;20.50;99.90
19864;DHT22;10094;48.820;9.226;2023-06-10T23:58:44;20.30;99.90
